Sault Sainte Marie, MI

6:02 PM EDT on August 21, 2014 (GMT -0400)
Sault Ste Marie Municipal / Sanderson Field | Change Station
CLOSE
Current Station
Airport
Location: Sault Ste Marie,
Elevation: 715 ft
Nearby Weather Stations

Elev 715 ft 46.48 °N, 84.36 °W | Updated 7 minutes ago

Overcast
Overcast
71 °F
Feels Like 71 °F
N
5
Wind Variable Wind from West

Today
High -- | Low -- °F
--% Chance of Precip.
Yesterday
High -- | Low -- °F
Precip. -- in
6:43 AM 8:36 PM
Waning Crescent, 12% visible
Pressure 29.96 in
Visibility 10.0 miles
Clouds Overcast 6000 ft
Dew Point 63 °F
Humidity 75%
Rainfall 0.00 in
Snow Depth Not available.
UV 1 out of 12
Pollen 8.80 out of 12
Ozone Good
PM2.5 Good
Flu Activity Not available.
METAR KANJ 212155Z AUTO 26004KT 10SM OVC060 22/17 A2997 RMK AO2 SLP146 T02170172

More Conditions Fewer Conditions

Pressure 29.96 in
Visibility 10.0 miles
Clouds Overcast 6000 ft
Dew Point 63 °F
Humidity 75%
Rainfall 0.00 in
Snow Depth Not available.
UV 1 out of 12
Pollen 8.80 out of 12
Ozone Good
PM2.5 Good
Flu Activity Not available.
METAR KANJ 212155Z AUTO 26004KT 10SM OVC060 22/17 A2997 RMK AO2 SLP146 T02170172

More Conditions Fewer Conditions

Nowcast | as of 6:00 PM EDT on August 21, 2014

At 7 PM...partly cloudy. Temperature 70. Light winds. At 9 PM...partly cloudy. Temperature 66. Light winds. At 11 PM...partly cloudy. Temperature 63. Light winds. At 1 am...partly cloudy. Temperature 61. Light winds.

×

10-Day Weather Forecast

Almanac

Astronomy

Aug. 21, 2014 Rise Set
Actual Time 6:43 AM EDT 8:36 PM EDT
Civil Twilight 6:11 AM EDT 9:08 PM EDT
Nautical Twilight 5:31 AM EDT 9:48 PM EDT
Astronomical Twilight 4:47 AM EDT 10:31 PM EDT
Moon 3:07 AM EDT 6:09 PM EDT
Length of Visible Light 14h 57m
Length of Day
13h 53m
Tomorrow will be 3m 4s shorter.
Waning Crescent, 12% of the Moon is Illuminated
Today
Waning Crescent
Aug 25
New
Sep 2
First Quarter
Sep 8
Full
Sep 15
Last Quarter

Today's Extremes

State Highs State Lows

Community

WunderPhotos

Upload Photos

1,746,033 photos uploaded!

WunderBlogs® & News

Nearby

Air Quality

  Air Quality AQ Index Pollutant
Yesterday Good
PM2.5
Yesterday Good
OZONE
Current Good
OZONE
Current Good
PM2.5
Thursday Good
OZONE
Thursday Good
PM2.5
Friday Good
OZONE
Friday Good
PM2.5
Saturday Good
OZONE
Saturday Good
PM2.5
Sunday Good
OZONE
Sunday Good
PM2.5

Snow Depth

Station Depth Elevation
No new snow has been reported.

Earthquake Activity

City Distance Mag. Time & Date
No recent earthquake activity has been reported nearby.
Minimum magnitude displayed is 2.5.

Coastal Water Temperatures

Place Temperature
Rock Cut, MI 62.1 °F
S W Pier, MI 60.1 °F
West Neebish, MI 59.0 °F

Nearby Weather Stations